sensor_id;sensor_type;location;lat;lon;timestamp;temperature;humidity
15152;DHT22;7676;50.900;6.234;2023-04-03T00:02:11;3.80;99.90
15152;DHT22;7676;50.900;6.234;2023-04-03T00:17:13;3.80;99.90
15152;DHT22;7676;50.900;6.234;2023-04-03T00:32:16;3.80;99.90
15152;DHT22;7676;50.900;6.234;2023-04-03T00:47:18;4.50;99.90
15152;DHT22;7676;50.900;6.234;2023-04-03T01:02:21;4.50;99.90
15152;DHT22;7676;50.900;6.234;2023-04-03T01:17:35;4.70;99.90
15152;DHT22;7676;50.900;6.234;2023-04-03T01:32:38;4.80;99.90
15152;DHT22;7676;50.900;6.234;2023-04-03T01:47:41;5.00;99.90
15152;DHT22;7676;50.900;6.234;2023-04-03T02:02:44;4.80;99.90
15152;DHT22;7676;50.900;6.234;2023-04-03T02:17:48;4.60;99.90
15152;DHT22;7676;50.900;6.234;2023-04-03T02:32:52;4.40;99.90
15152;DHT22;7676;50.900;6.234;2023-04-03T02:47:55;4.00;99.90
15152;DHT22;7676;50.900;6.234;2023-04-03T03:02:57;3.80;99.90
15152;DHT22;7676;50.900;6.234;2023-04-03T03:18:00;4.00;99.90
15152;DHT22;7676;50.900;6.234;2023-04-03T03:33:03;3.40;99.90
15152;DHT22;7676;50.900;6.234;2023-04-03T03:48:06;3.40;99.90
15152;DHT22;7676;50.900;6.234;2023-04-03T04:03:08;3.10;99.90
15152;DHT22;7676;50.900;6.234;2023-04-03T04:18:11;3.30;99.90
15152;DHT22;7676;50.900;6.234;2023-04-03T04:33:17;3.00;99.90
15152;DHT22;7676;50.900;6.234;2023-04-03T04:48:20;3.10;99.90
15152;DHT22;7676;50.900;6.234;2023-04-03T05:03:23;3.60;99.90
15152;DHT22;7676;50.900;6.234;2023-04-03T05:18:25;3.90;99.90
15152;DHT22;7676;50.900;6.234;2023-04-03T05:33:31;4.10;99.90
15152;DHT22;7676;50.900;6.234;2023-04-03T05:48:34;6.70;99.90
15152;DHT22;7676;50.900;6.234;2023-04-03T06:03:37;6.20;99.90
15152;DHT22;7676;50.900;6.234;2023-04-03T06:18:43;5.80;99.90
15152;DHT22;7676;50.900;6.234;2023-04-03T06:33:49;4.20;99.90
15152;DHT22;7676;50.900;6.234;2023-04-03T06:48:53;3.30;99.90
15152;DHT22;7676;50.900;6.234;2023-04-03T07:03:56;3.10;99.90
15152;DHT22;7676;50.900;6.234;2023-04-03T07:18:59;3.20;99.90
15152;DHT22;7676;50.900;6.234;2023-04-03T07:34:03;3.80;99.90
15152;DHT22;7676;50.900;6.234;2023-04-03T07:49:05;4.00;99.90
15152;DHT22;7676;50.900;6.234;2023-04-03T08:04:08;4.30;99.90
15152;DHT22;7676;50.900;6.234;2023-04-03T08:19:11;4.50;99.90
15152;DHT22;7676;50.900;6.234;2023-04-03T08:34:26;4.60;99.90
15152;DHT22;7676;50.900;6.234;2023-04-03T08:49:43;4.70;99.90
15152;DHT22;7676;50.900;6.234;2023-04-03T09:04:50;5.20;99.90
15152;DHT22;7676;50.900;6.234;2023-04-03T09:20:03;5.20;99.90
15152;DHT22;7676;50.900;6.234;2023-04-03T09:35:28;5.50;99.90
15152;DHT22;7676;50.900;6.234;2023-04-03T10:06:04;5.80;99.90
15152;DHT22;7676;50.900;6.234;2023-04-03T10:21:34;6.30;99.90
15152;DHT22;7676;50.900;6.234;2023-04-03T10:52:29;7.40;99.90
15152;DHT22;7676;50.900;6.234;2023-04-03T11:07:38;7.50;99.90
15152;DHT22;7676;50.900;6.234;2023-04-03T11:22:43;7.80;99.90
15152;DHT22;7676;50.900;6.234;2023-04-03T11:37:50;8.30;99.90
15152;DHT22;7676;50.900;6.234;2023-04-03T11:52:58;8.30;99.90
15152;DHT22;7676;50.900;6.234;2023-04-03T12:23:34;9.00;99.90
15152;DHT22;7676;50.900;6.234;2023-04-03T12:39:04;8.80;99.90
15152;DHT22;7676;50.900;6.234;2023-04-03T13:09:33;9.20;99.90
15152;DHT22;7676;50.900;6.234;2023-04-03T13:24:38;9.20;99.90
15152;DHT22;7676;50.900;6.234;2023-04-03T13:39:41;9.10;99.90
15152;DHT22;7676;50.900;6.234;2023-04-03T13:54:46;9.00;99.90
15152;DHT22;7676;50.900;6.234;2023-04-03T14:09:49;8.90;99.90
15152;DHT22;7676;50.900;6.234;2023-04-03T14:24:52;9.10;99.90
15152;DHT22;7676;50.900;6.234;2023-04-03T14:39:56;9.20;99.90
15152;DHT22;7676;50.900;6.234;2023-04-03T14:54:59;9.10;99.40
15152;DHT22;7676;50.900;6.234;2023-04-03T15:10:24;9.20;99.90
15152;DHT22;7676;50.900;6.234;2023-04-03T15:25:30;9.00;99.90
15152;DHT22;7676;50.900;6.234;2023-04-03T15:40:50;9.10;99.90
15152;DHT22;7676;50.900;6.234;2023-04-03T15:56:06;9.10;99.90
15152;DHT22;7676;50.900;6.234;2023-04-03T16:11:10;9.00;99.90
15152;DHT22;7676;50.900;6.234;2023-04-03T16:26:13;8.70;99.90
15152;DHT22;7676;50.900;6.234;2023-04-03T16:41:16;8.70;99.90
15152;DHT22;7676;50.900;6.234;2023-04-03T16:56:18;8.30;99.90
15152;DHT22;7676;50.900;6.234;2023-04-03T17:11:21;8.10;99.90
15152;DHT22;7676;50.900;6.234;2023-04-03T17:26:25;7.70;99.90
15152;DHT22;7676;50.900;6.234;2023-04-03T17:41:29;7.30;99.90
15152;DHT22;7676;50.900;6.234;2023-04-03T17:56:32;6.90;99.90
15152;DHT22;7676;50.900;6.234;2023-04-03T18:11:35;6.40;99.90
15152;DHT22;7676;50.900;6.234;2023-04-03T18:26:37;6.20;99.90
15152;DHT22;7676;50.900;6.234;2023-04-03T18:41:40;5.90;99.90
15152;DHT22;7676;50.900;6.234;2023-04-03T18:56:43;5.80;99.90
15152;DHT22;7676;50.900;6.234;2023-04-03T19:11:46;5.50;99.90
15152;DHT22;7676;50.900;6.234;2023-04-03T19:26:48;5.10;99.90
15152;DHT22;7676;50.900;6.234;2023-04-03T19:41:51;5.10;99.90
15152;DHT22;7676;50.900;6.234;2023-04-03T19:56:54;4.90;99.90
15152;DHT22;7676;50.900;6.234;2023-04-03T20:11:56;4.70;99.90
15152;DHT22;7676;50.900;6.234;2023-04-03T20:27:01;4.60;99.90
15152;DHT22;7676;50.900;6.234;2023-04-03T20:42:03;4.30;99.90
15152;DHT22;7676;50.900;6.234;2023-04-03T20:57:06;4.20;99.90
15152;DHT22;7676;50.900;6.234;2023-04-03T21:27:49;3.80;99.90
15152;DHT22;7676;50.900;6.234;2023-04-03T21:42:54;3.70;99.90
15152;DHT22;7676;50.900;6.234;2023-04-03T21:57:57;3.70;99.90
15152;DHT22;7676;50.900;6.234;2023-04-03T22:12:59;3.40;99.90
15152;DHT22;7676;50.900;6.234;2023-04-03T22:28:02;3.20;99.90
15152;DHT22;7676;50.900;6.234;2023-04-03T22:43:04;3.20;99.90
15152;DHT22;7676;50.900;6.234;2023-04-03T22:58:07;3.10;99.90
15152;DHT22;7676;50.900;6.234;2023-04-03T23:13:09;3.10;99.90
15152;DHT22;7676;50.900;6.234;2023-04-03T23:28:12;3.80;99.90
15152;DHT22;7676;50.900;6.234;2023-04-03T23:43:15;3.60;99.90
15152;DHT22;7676;50.900;6.234;2023-04-03T23:58:17;3.60;99.90
